sensor_id;sensor_type;location;lat;lon;timestamp;temperature;humidity
3758;DHT22;1894;51.038;13.692;2023-08-17T00:00:04;22.70;99.90
3758;DHT22;1894;51.038;13.692;2023-08-17T00:02:35;22.60;99.90
3758;DHT22;1894;51.038;13.692;2023-08-17T00:05:02;22.60;99.90
3758;DHT22;1894;51.038;13.692;2023-08-17T00:07:29;22.50;99.90
3758;DHT22;1894;51.038;13.692;2023-08-17T00:09:56;22.40;99.90
3758;DHT22;1894;51.038;13.692;2023-08-17T00:12:24;22.30;99.90
3758;DHT22;1894;51.038;13.692;2023-08-17T00:14:52;22.30;99.90
3758;DHT22;1894;51.038;13.692;2023-08-17T00:17:19;22.20;99.90
3758;DHT22;1894;51.038;13.692;2023-08-17T00:19:47;22.00;99.90
3758;DHT22;1894;51.038;13.692;2023-08-17T00:22:14;21.80;99.90
3758;DHT22;1894;51.038;13.692;2023-08-17T00:24:42;21.80;99.90
3758;DHT22;1894;51.038;13.692;2023-08-17T00:27:11;21.80;99.90
3758;DHT22;1894;51.038;13.692;2023-08-17T00:29:38;21.90;99.90
3758;DHT22;1894;51.038;13.692;2023-08-17T00:32:05;21.80;99.90
3758;DHT22;1894;51.038;13.692;2023-08-17T00:34:35;21.80;99.90
3758;DHT22;1894;51.038;13.692;2023-08-17T00:37:02;21.70;99.90
3758;DHT22;1894;51.038;13.692;2023-08-17T00:39:29;21.60;99.90
3758;DHT22;1894;51.038;13.692;2023-08-17T00:41:57;21.50;99.90
3758;DHT22;1894;51.038;13.692;2023-08-17T00:44:24;21.50;99.90
3758;DHT22;1894;51.038;13.692;2023-08-17T00:46:51;21.40;99.90
3758;DHT22;1894;51.038;13.692;2023-08-17T00:49:18;21.40;99.90
3758;DHT22;1894;51.038;13.692;2023-08-17T00:51:46;21.40;99.90
3758;DHT22;1894;51.038;13.692;2023-08-17T00:54:13;21.30;99.90
3758;DHT22;1894;51.038;13.692;2023-08-17T00:56:45;21.30;99.90
3758;DHT22;1894;51.038;13.692;2023-08-17T00:59:12;21.30;99.90
3758;DHT22;1894;51.038;13.692;2023-08-17T01:01:40;21.30;99.90
3758;DHT22;1894;51.038;13.692;2023-08-17T01:04:07;21.10;99.90
3758;DHT22;1894;51.038;13.692;2023-08-17T01:06:34;21.00;99.90
3758;DHT22;1894;51.038;13.692;2023-08-17T01:09:06;21.10;99.90
3758;DHT22;1894;51.038;13.692;2023-08-17T01:11:41;21.00;99.90
3758;DHT22;1894;51.038;13.692;2023-08-17T01:15:24;21.00;99.90
3758;DHT22;1894;51.038;13.692;2023-08-17T01:20:58;21.10;99.90
3758;DHT22;1894;51.038;13.692;2023-08-17T01:23:26;21.10;99.90
3758;DHT22;1894;51.038;13.692;2023-08-17T01:25:53;21.10;99.90
3758;DHT22;1894;51.038;13.692;2023-08-17T01:28:21;21.10;99.90
3758;DHT22;1894;51.038;13.692;2023-08-17T01:31:01;21.00;99.90
3758;DHT22;1894;51.038;13.692;2023-08-17T01:34:03;21.00;99.90
3758;DHT22;1894;51.038;13.692;2023-08-17T01:36:43;20.90;99.90
3758;DHT22;1894;51.038;13.692;2023-08-17T01:39:15;20.90;99.90
3758;DHT22;1894;51.038;13.692;2023-08-17T01:41:45;20.80;99.90
3758;DHT22;1894;51.038;13.692;2023-08-17T01:44:13;20.80;99.90
3758;DHT22;1894;51.038;13.692;2023-08-17T01:46:41;20.80;99.90
3758;DHT22;1894;51.038;13.692;2023-08-17T01:49:09;20.70;99.90
3758;DHT22;1894;51.038;13.692;2023-08-17T01:51:37;20.70;99.90
3758;DHT22;1894;51.038;13.692;2023-08-17T01:54:04;20.60;99.90
3758;DHT22;1894;51.038;13.692;2023-08-17T01:56:32;20.60;99.90
3758;DHT22;1894;51.038;13.692;2023-08-17T01:59:00;20.70;99.90
3758;DHT22;1894;51.038;13.692;2023-08-17T02:01:27;20.60;99.90
3758;DHT22;1894;51.038;13.692;2023-08-17T02:03:55;20.70;99.90
3758;DHT22;1894;51.038;13.692;2023-08-17T02:06:22;20.70;99.90
3758;DHT22;1894;51.038;13.692;2023-08-17T02:08:49;20.70;99.90
3758;DHT22;1894;51.038;13.692;2023-08-17T02:11:16;20.60;99.90
3758;DHT22;1894;51.038;13.692;2023-08-17T02:13:44;20.50;99.90
3758;DHT22;1894;51.038;13.692;2023-08-17T02:16:11;20.50;99.90
3758;DHT22;1894;51.038;13.692;2023-08-17T02:18:38;20.40;99.90
3758;DHT22;1894;51.038;13.692;2023-08-17T02:21:06;20.30;99.90
3758;DHT22;1894;51.038;13.692;2023-08-17T02:23:33;20.20;99.90
3758;DHT22;1894;51.038;13.692;2023-08-17T02:26:00;20.20;99.90
3758;DHT22;1894;51.038;13.692;2023-08-17T02:28:27;20.20;99.90
3758;DHT22;1894;51.038;13.692;2023-08-17T02:30:56;20.20;99.90
3758;DHT22;1894;51.038;13.692;2023-08-17T02:33:27;20.10;99.90
3758;DHT22;1894;51.038;13.692;2023-08-17T02:35:55;20.20;99.90
3758;DHT22;1894;51.038;13.692;2023-08-17T02:38:22;20.30;99.90
3758;DHT22;1894;51.038;13.692;2023-08-17T02:40:49;20.20;99.90
3758;DHT22;1894;51.038;13.692;2023-08-17T02:43:17;20.30;99.90
3758;DHT22;1894;51.038;13.692;2023-08-17T02:45:44;20.30;99.90
3758;DHT22;1894;51.038;13.692;2023-08-17T02:48:11;20.30;99.90
3758;DHT22;1894;51.038;13.692;2023-08-17T02:50:38;20.40;99.90
3758;DHT22;1894;51.038;13.692;2023-08-17T02:53:06;20.40;99.90
3758;DHT22;1894;51.038;13.692;2023-08-17T02:55:33;20.40;99.90
3758;DHT22;1894;51.038;13.692;2023-08-17T02:58:00;20.50;99.90
3758;DHT22;1894;51.038;13.692;2023-08-17T03:00:28;20.50;99.90
3758;DHT22;1894;51.038;13.692;2023-08-17T03:02:56;20.50;99.90
3758;DHT22;1894;51.038;13.692;2023-08-17T03:05:25;20.60;99.90
3758;DHT22;1894;51.038;13.692;2023-08-17T03:07:52;20.60;99.90
3758;DHT22;1894;51.038;13.692;2023-08-17T03:10:19;20.70;99.90
3758;DHT22;1894;51.038;13.692;2023-08-17T03:12:46;20.70;99.90
3758;DHT22;1894;51.038;13.692;2023-08-17T03:15:14;20.60;99.90
3758;DHT22;1894;51.038;13.692;2023-08-17T03:17:41;20.60;99.90
3758;DHT22;1894;51.038;13.692;2023-08-17T03:20:09;20.70;99.90
3758;DHT22;1894;51.038;13.692;2023-08-17T03:22:36;20.70;99.90
3758;DHT22;1894;51.038;13.692;2023-08-17T03:25:04;20.70;99.90
3758;DHT22;1894;51.038;13.692;2023-08-17T03:27:32;20.50;99.90
3758;DHT22;1894;51.038;13.692;2023-08-17T03:30:00;20.30;99.90
3758;DHT22;1894;51.038;13.692;2023-08-17T03:32:28;20.20;99.90
3758;DHT22;1894;51.038;13.692;2023-08-17T03:34:55;20.20;99.90
3758;DHT22;1894;51.038;13.692;2023-08-17T03:37:23;20.10;99.90
3758;DHT22;1894;51.038;13.692;2023-08-17T03:39:51;20.00;99.90
3758;DHT22;1894;51.038;13.692;2023-08-17T03:42:18;20.00;99.90
3758;DHT22;1894;51.038;13.692;2023-08-17T03:44:45;20.10;99.90
3758;DHT22;1894;51.038;13.692;2023-08-17T03:47:12;20.00;99.90
3758;DHT22;1894;51.038;13.692;2023-08-17T03:49:39;20.00;99.90
3758;DHT22;1894;51.038;13.692;2023-08-17T03:52:06;19.90;99.90
3758;DHT22;1894;51.038;13.692;2023-08-17T03:54:34;19.90;99.90
3758;DHT22;1894;51.038;13.692;2023-08-17T03:57:01;20.00;99.90
3758;DHT22;1894;51.038;13.692;2023-08-17T03:59:28;20.00;99.90
3758;DHT22;1894;51.038;13.692;2023-08-17T04:01:55;20.00;99.90
3758;DHT22;1894;51.038;13.692;2023-08-17T04:04:23;19.90;99.90
3758;DHT22;1894;51.038;13.692;2023-08-17T04:06:50;20.00;99.90
3758;DHT22;1894;51.038;13.692;2023-08-17T04:09:17;20.00;99.90
3758;DHT22;1894;51.038;13.692;2023-08-17T04:11:45;20.00;99.90
3758;DHT22;1894;51.038;13.692;2023-08-17T04:14:12;20.10;99.90
3758;DHT22;1894;51.038;13.692;2023-08-17T04:16:41;20.10;99.90
3758;DHT22;1894;51.038;13.692;2023-08-17T04:19:08;20.10;99.90
3758;DHT22;1894;51.038;13.692;2023-08-17T04:21:35;20.10;99.90
3758;DHT22;1894;51.038;13.692;2023-08-17T04:24:03;20.10;99.90
3758;DHT22;1894;51.038;13.692;2023-08-17T04:26:31;20.20;99.90
3758;DHT22;1894;51.038;13.692;2023-08-17T04:28:58;20.30;99.90
3758;DHT22;1894;51.038;13.692;2023-08-17T04:31:27;20.40;99.90
3758;DHT22;1894;51.038;13.692;2023-08-17T04:33:59;20.60;99.90
3758;DHT22;1894;51.038;13.692;2023-08-17T04:36:30;20.70;99.90
3758;DHT22;1894;51.038;13.692;2023-08-17T04:38:57;20.80;99.90
3758;DHT22;1894;51.038;13.692;2023-08-17T04:41:25;20.90;99.90
3758;DHT22;1894;51.038;13.692;2023-08-17T04:43:53;20.90;99.90
3758;DHT22;1894;51.038;13.692;2023-08-17T04:46:21;20.80;99.90
3758;DHT22;1894;51.038;13.692;2023-08-17T04:48:48;20.90;99.90
3758;DHT22;1894;51.038;13.692;2023-08-17T04:51:16;21.00;99.90
3758;DHT22;1894;51.038;13.692;2023-08-17T04:53:44;21.00;99.90
3758;DHT22;1894;51.038;13.692;2023-08-17T04:56:11;21.00;99.90
3758;DHT22;1894;51.038;13.692;2023-08-17T04:58:39;21.10;99.90
3758;DHT22;1894;51.038;13.692;2023-08-17T05:01:06;21.30;99.90
3758;DHT22;1894;51.038;13.692;2023-08-17T05:03:33;21.40;99.90
3758;DHT22;1894;51.038;13.692;2023-08-17T05:06:03;21.50;99.90
3758;DHT22;1894;51.038;13.692;2023-08-17T05:08:32;21.60;99.90
3758;DHT22;1894;51.038;13.692;2023-08-17T05:11:00;21.50;99.90
3758;DHT22;1894;51.038;13.692;2023-08-17T05:13:28;21.50;99.90
3758;DHT22;1894;51.038;13.692;2023-08-17T05:15:58;21.50;99.90
3758;DHT22;1894;51.038;13.692;2023-08-17T05:18:26;21.80;99.90
3758;DHT22;1894;51.038;13.692;2023-08-17T05:20:54;21.90;99.90
3758;DHT22;1894;51.038;13.692;2023-08-17T05:23:21;21.90;99.90
3758;DHT22;1894;51.038;13.692;2023-08-17T05:25:49;22.00;99.90
3758;DHT22;1894;51.038;13.692;2023-08-17T05:28:16;22.00;99.90
3758;DHT22;1894;51.038;13.692;2023-08-17T05:30:44;22.20;99.90
3758;DHT22;1894;51.038;13.692;2023-08-17T05:33:11;22.20;99.90
3758;DHT22;1894;51.038;13.692;2023-08-17T05:35:38;22.40;99.90
3758;DHT22;1894;51.038;13.692;2023-08-17T05:38:06;22.60;99.90
3758;DHT22;1894;51.038;13.692;2023-08-17T05:40:33;22.70;99.90
3758;DHT22;1894;51.038;13.692;2023-08-17T05:43:00;22.60;99.90
3758;DHT22;1894;51.038;13.692;2023-08-17T05:45:28;22.80;99.90
3758;DHT22;1894;51.038;13.692;2023-08-17T05:47:55;22.80;99.90
3758;DHT22;1894;51.038;13.692;2023-08-17T05:50:22;22.60;99.90
3758;DHT22;1894;51.038;13.692;2023-08-17T05:52:49;22.80;99.90
3758;DHT22;1894;51.038;13.692;2023-08-17T05:55:17;22.70;99.90
3758;DHT22;1894;51.038;13.692;2023-08-17T05:57:44;22.30;99.90
3758;DHT22;1894;51.038;13.692;2023-08-17T06:00:11;22.10;99.90
3758;DHT22;1894;51.038;13.692;2023-08-17T06:02:41;22.10;99.90
3758;DHT22;1894;51.038;13.692;2023-08-17T06:05:09;22.20;99.90
3758;DHT22;1894;51.038;13.692;2023-08-17T06:07:36;22.60;99.90
3758;DHT22;1894;51.038;13.692;2023-08-17T06:10:04;22.60;99.90
3758;DHT22;1894;51.038;13.692;2023-08-17T06:12:33;22.60;99.90
3758;DHT22;1894;51.038;13.692;2023-08-17T06:15:02;22.60;99.90
3758;DHT22;1894;51.038;13.692;2023-08-17T06:17:30;22.70;99.90
3758;DHT22;1894;51.038;13.692;2023-08-17T06:19:57;22.80;99.90
3758;DHT22;1894;51.038;13.692;2023-08-17T06:22:24;22.80;99.90
3758;DHT22;1894;51.038;13.692;2023-08-17T06:24:51;23.00;99.90
3758;DHT22;1894;51.038;13.692;2023-08-17T06:27:18;23.10;99.90
3758;DHT22;1894;51.038;13.692;2023-08-17T06:29:46;23.30;99.90
3758;DHT22;1894;51.038;13.692;2023-08-17T06:32:13;23.40;99.90
3758;DHT22;1894;51.038;13.692;2023-08-17T06:34:40;23.10;99.90
3758;DHT22;1894;51.038;13.692;2023-08-17T06:37:07;22.70;99.90
3758;DHT22;1894;51.038;13.692;2023-08-17T06:39:34;22.60;99.90
3758;DHT22;1894;51.038;13.692;2023-08-17T06:42:04;22.90;99.90
3758;DHT22;1894;51.038;13.692;2023-08-17T06:44:32;23.10;99.90
3758;DHT22;1894;51.038;13.692;2023-08-17T06:46:59;23.20;99.90
3758;DHT22;1894;51.038;13.692;2023-08-17T06:49:26;23.60;99.90
3758;DHT22;1894;51.038;13.692;2023-08-17T06:51:54;24.10;99.90
3758;DHT22;1894;51.038;13.692;2023-08-17T06:54:21;24.50;99.90
3758;DHT22;1894;51.038;13.692;2023-08-17T06:56:48;24.50;99.90
3758;DHT22;1894;51.038;13.692;2023-08-17T06:59:15;24.30;99.90
3758;DHT22;1894;51.038;13.692;2023-08-17T07:01:43;24.30;99.90
3758;DHT22;1894;51.038;13.692;2023-08-17T07:04:10;24.30;99.90
3758;DHT22;1894;51.038;13.692;2023-08-17T07:06:37;24.40;99.90
3758;DHT22;1894;51.038;13.692;2023-08-17T07:09:04;24.30;99.90
3758;DHT22;1894;51.038;13.692;2023-08-17T07:11:32;24.30;99.90
3758;DHT22;1894;51.038;13.692;2023-08-17T07:13:59;24.20;99.90
3758;DHT22;1894;51.038;13.692;2023-08-17T07:16:26;24.60;99.90
3758;DHT22;1894;51.038;13.692;2023-08-17T07:18:53;24.70;99.90
3758;DHT22;1894;51.038;13.692;2023-08-17T07:21:21;25.00;99.90
3758;DHT22;1894;51.038;13.692;2023-08-17T07:23:48;25.10;99.90
3758;DHT22;1894;51.038;13.692;2023-08-17T07:26:17;25.20;99.90
3758;DHT22;1894;51.038;13.692;2023-08-17T07:28:47;25.40;99.90
3758;DHT22;1894;51.038;13.692;2023-08-17T07:31:15;25.60;99.90
3758;DHT22;1894;51.038;13.692;2023-08-17T07:33:42;25.40;99.90
3758;DHT22;1894;51.038;13.692;2023-08-17T07:36:10;25.30;99.90
3758;DHT22;1894;51.038;13.692;2023-08-17T07:38:37;25.00;99.90
3758;DHT22;1894;51.038;13.692;2023-08-17T07:41:04;24.90;99.90
3758;DHT22;1894;51.038;13.692;2023-08-17T07:43:31;25.40;99.90
3758;DHT22;1894;51.038;13.692;2023-08-17T07:45:58;25.90;99.90
3758;DHT22;1894;51.038;13.692;2023-08-17T07:48:25;26.30;99.90
3758;DHT22;1894;51.038;13.692;2023-08-17T07:50:53;26.30;99.90
3758;DHT22;1894;51.038;13.692;2023-08-17T07:53:20;25.90;99.90
3758;DHT22;1894;51.038;13.692;2023-08-17T07:55:47;25.90;99.90
3758;DHT22;1894;51.038;13.692;2023-08-17T07:58:17;25.60;99.90
3758;DHT22;1894;51.038;13.692;2023-08-17T08:00:44;24.90;99.90
3758;DHT22;1894;51.038;13.692;2023-08-17T08:03:11;25.60;99.90
3758;DHT22;1894;51.038;13.692;2023-08-17T08:05:38;25.80;99.90
3758;DHT22;1894;51.038;13.692;2023-08-17T08:08:05;25.90;99.90
3758;DHT22;1894;51.038;13.692;2023-08-17T08:10:32;25.60;99.90
3758;DHT22;1894;51.038;13.692;2023-08-17T08:12:59;25.60;99.90
3758;DHT22;1894;51.038;13.692;2023-08-17T08:15:27;25.90;99.90
3758;DHT22;1894;51.038;13.692;2023-08-17T08:17:54;26.30;99.90
3758;DHT22;1894;51.038;13.692;2023-08-17T08:20:21;26.40;99.90
3758;DHT22;1894;51.038;13.692;2023-08-17T08:22:48;26.30;99.90
3758;DHT22;1894;51.038;13.692;2023-08-17T08:25:15;26.00;99.90
3758;DHT22;1894;51.038;13.692;2023-08-17T08:27:43;25.80;99.90
3758;DHT22;1894;51.038;13.692;2023-08-17T08:30:10;25.90;99.90
3758;DHT22;1894;51.038;13.692;2023-08-17T08:32:37;25.70;99.90
3758;DHT22;1894;51.038;13.692;2023-08-17T08:35:05;25.80;99.90
3758;DHT22;1894;51.038;13.692;2023-08-17T08:37:32;26.00;99.90
3758;DHT22;1894;51.038;13.692;2023-08-17T08:40:00;26.10;99.90
3758;DHT22;1894;51.038;13.692;2023-08-17T08:42:27;26.00;99.90
3758;DHT22;1894;51.038;13.692;2023-08-17T08:44:55;26.30;99.90
3758;DHT22;1894;51.038;13.692;2023-08-17T08:47:23;26.40;99.90
3758;DHT22;1894;51.038;13.692;2023-08-17T08:50:03;26.50;99.90
3758;DHT22;1894;51.038;13.692;2023-08-17T08:52:36;26.60;99.90
3758;DHT22;1894;51.038;13.692;2023-08-17T08:55:17;26.70;99.90
3758;DHT22;1894;51.038;13.692;2023-08-17T08:57:46;27.00;99.90
3758;DHT22;1894;51.038;13.692;2023-08-17T09:00:18;27.40;99.90
3758;DHT22;1894;51.038;13.692;2023-08-17T09:02:46;27.80;99.90
3758;DHT22;1894;51.038;13.692;2023-08-17T09:05:13;28.10;99.90
3758;DHT22;1894;51.038;13.692;2023-08-17T09:07:42;28.50;99.90
3758;DHT22;1894;51.038;13.692;2023-08-17T09:10:10;28.90;99.90
3758;DHT22;1894;51.038;13.692;2023-08-17T09:12:39;29.10;99.90
3758;DHT22;1894;51.038;13.692;2023-08-17T09:15:08;29.50;99.90
3758;DHT22;1894;51.038;13.692;2023-08-17T09:17:35;29.00;99.90
3758;DHT22;1894;51.038;13.692;2023-08-17T09:20:03;28.80;99.90
3758;DHT22;1894;51.038;13.692;2023-08-17T09:22:42;28.90;99.90
3758;DHT22;1894;51.038;13.692;2023-08-17T09:25:11;29.40;99.90
3758;DHT22;1894;51.038;13.692;2023-08-17T09:27:38;29.60;99.90
3758;DHT22;1894;51.038;13.692;2023-08-17T09:30:11;29.60;99.90
3758;DHT22;1894;51.038;13.692;2023-08-17T09:32:39;29.30;99.90
3758;DHT22;1894;51.038;13.692;2023-08-17T09:35:08;29.40;99.90
3758;DHT22;1894;51.038;13.692;2023-08-17T09:37:35;29.00;99.90
3758;DHT22;1894;51.038;13.692;2023-08-17T09:40:03;29.40;99.90
3758;DHT22;1894;51.038;13.692;2023-08-17T09:42:34;29.50;99.90
3758;DHT22;1894;51.038;13.692;2023-08-17T09:45:02;29.50;99.90
3758;DHT22;1894;51.038;13.692;2023-08-17T09:47:30;29.60;99.90
3758;DHT22;1894;51.038;13.692;2023-08-17T09:49:57;29.80;99.90
3758;DHT22;1894;51.038;13.692;2023-08-17T09:52:24;29.70;99.90
3758;DHT22;1894;51.038;13.692;2023-08-17T09:54:52;29.40;99.90
3758;DHT22;1894;51.038;13.692;2023-08-17T09:57:22;29.40;99.90
3758;DHT22;1894;51.038;13.692;2023-08-17T09:59:50;29.00;99.90
3758;DHT22;1894;51.038;13.692;2023-08-17T10:02:23;28.90;99.90
3758;DHT22;1894;51.038;13.692;2023-08-17T10:04:53;28.80;99.90
3758;DHT22;1894;51.038;13.692;2023-08-17T10:07:22;29.10;99.90
3758;DHT22;1894;51.038;13.692;2023-08-17T10:10:03;29.30;99.90
3758;DHT22;1894;51.038;13.692;2023-08-17T10:12:48;29.00;99.90
3758;DHT22;1894;51.038;13.692;2023-08-17T10:15:18;29.10;99.90
3758;DHT22;1894;51.038;13.692;2023-08-17T10:17:52;29.10;99.90
3758;DHT22;1894;51.038;13.692;2023-08-17T10:20:26;28.70;99.90
3758;DHT22;1894;51.038;13.692;2023-08-17T10:23:05;28.70;99.90
3758;DHT22;1894;51.038;13.692;2023-08-17T10:25:38;29.00;99.90
3758;DHT22;1894;51.038;13.692;2023-08-17T10:28:08;28.90;99.90
3758;DHT22;1894;51.038;13.692;2023-08-17T10:30:37;29.40;99.90
3758;DHT22;1894;51.038;13.692;2023-08-17T10:33:05;29.00;99.90
3758;DHT22;1894;51.038;13.692;2023-08-17T10:35:34;29.30;99.90
3758;DHT22;1894;51.038;13.692;2023-08-17T10:38:03;29.30;99.90
3758;DHT22;1894;51.038;13.692;2023-08-17T10:40:38;29.10;99.90
3758;DHT22;1894;51.038;13.692;2023-08-17T10:43:08;29.30;99.90
3758;DHT22;1894;51.038;13.692;2023-08-17T10:45:35;29.30;99.90
3758;DHT22;1894;51.038;13.692;2023-08-17T10:50:33;29.60;99.90
3758;DHT22;1894;51.038;13.692;2023-08-17T10:53:09;29.60;99.90
3758;DHT22;1894;51.038;13.692;2023-08-17T10:55:44;29.60;99.90
3758;DHT22;1894;51.038;13.692;2023-08-17T10:58:18;29.50;99.90
3758;DHT22;1894;51.038;13.692;2023-08-17T11:00:46;29.70;99.90
3758;DHT22;1894;51.038;13.692;2023-08-17T11:03:20;29.80;99.90
3758;DHT22;1894;51.038;13.692;2023-08-17T11:05:56;30.10;99.90
3758;DHT22;1894;51.038;13.692;2023-08-17T11:08:37;29.80;99.90
3758;DHT22;1894;51.038;13.692;2023-08-17T11:11:15;30.20;99.90
3758;DHT22;1894;51.038;13.692;2023-08-17T11:13:44;29.80;99.90
3758;DHT22;1894;51.038;13.692;2023-08-17T11:16:15;30.10;99.90
3758;DHT22;1894;51.038;13.692;2023-08-17T11:18:48;30.30;99.90
3758;DHT22;1894;51.038;13.692;2023-08-17T11:21:19;30.20;99.90
3758;DHT22;1894;51.038;13.692;2023-08-17T11:23:47;30.30;99.90
3758;DHT22;1894;51.038;13.692;2023-08-17T11:26:19;30.50;99.90
3758;DHT22;1894;51.038;13.692;2023-08-17T11:28:46;30.90;99.90
3758;DHT22;1894;51.038;13.692;2023-08-17T11:31:14;30.40;99.90
3758;DHT22;1894;51.038;13.692;2023-08-17T11:33:45;30.20;99.90
3758;DHT22;1894;51.038;13.692;2023-08-17T11:36:14;30.50;99.90
3758;DHT22;1894;51.038;13.692;2023-08-17T11:38:43;30.70;99.90
3758;DHT22;1894;51.038;13.692;2023-08-17T11:41:11;31.00;99.90
3758;DHT22;1894;51.038;13.692;2023-08-17T11:43:42;31.50;99.90
3758;DHT22;1894;51.038;13.692;2023-08-17T11:46:11;32.10;99.90
3758;DHT22;1894;51.038;13.692;2023-08-17T11:48:39;32.30;99.90
3758;DHT22;1894;51.038;13.692;2023-08-17T11:51:06;33.00;99.90
3758;DHT22;1894;51.038;13.692;2023-08-17T11:53:37;34.30;99.90
3758;DHT22;1894;51.038;13.692;2023-08-17T11:56:08;34.20;99.90
3758;DHT22;1894;51.038;13.692;2023-08-17T11:58:45;35.70;99.90
3758;DHT22;1894;51.038;13.692;2023-08-17T12:01:14;36.80;99.90
3758;DHT22;1894;51.038;13.692;2023-08-17T12:03:44;37.50;99.90
3758;DHT22;1894;51.038;13.692;2023-08-17T12:06:12;37.60;99.90
3758;DHT22;1894;51.038;13.692;2023-08-17T12:08:45;35.40;99.90
3758;DHT22;1894;51.038;13.692;2023-08-17T12:11:16;34.20;99.90
3758;DHT22;1894;51.038;13.692;2023-08-17T12:13:49;34.60;99.90
3758;DHT22;1894;51.038;13.692;2023-08-17T12:16:18;36.00;99.90
3758;DHT22;1894;51.038;13.692;2023-08-17T12:18:51;36.90;99.90
3758;DHT22;1894;51.038;13.692;2023-08-17T12:21:22;37.50;99.20
3758;DHT22;1894;51.038;13.692;2023-08-17T12:23:50;40.20;97.10
3758;DHT22;1894;51.038;13.692;2023-08-17T12:26:21;40.60;94.50
3758;DHT22;1894;51.038;13.692;2023-08-17T12:28:52;41.50;93.20
3758;DHT22;1894;51.038;13.692;2023-08-17T12:31:22;42.70;91.50
3758;DHT22;1894;51.038;13.692;2023-08-17T12:33:51;43.60;87.70
3758;DHT22;1894;51.038;13.692;2023-08-17T12:36:18;43.30;86.90
3758;DHT22;1894;51.038;13.692;2023-08-17T12:38:47;44.00;82.40
3758;DHT22;1894;51.038;13.692;2023-08-17T12:41:15;45.20;76.70
3758;DHT22;1894;51.038;13.692;2023-08-17T12:43:44;45.20;75.80
3758;DHT22;1894;51.038;13.692;2023-08-17T12:46:11;44.20;74.70
3758;DHT22;1894;51.038;13.692;2023-08-17T12:48:39;45.40;72.60
3758;DHT22;1894;51.038;13.692;2023-08-17T12:51:06;45.60;65.90
3758;DHT22;1894;51.038;13.692;2023-08-17T12:53:33;44.50;66.20
3758;DHT22;1894;51.038;13.692;2023-08-17T12:56:00;42.60;64.90
3758;DHT22;1894;51.038;13.692;2023-08-17T12:58:28;41.70;66.90
3758;DHT22;1894;51.038;13.692;2023-08-17T13:00:55;40.60;67.80
3758;DHT22;1894;51.038;13.692;2023-08-17T13:03:22;38.90;71.40
3758;DHT22;1894;51.038;13.692;2023-08-17T13:05:49;38.00;72.60
3758;DHT22;1894;51.038;13.692;2023-08-17T13:08:17;36.80;75.10
3758;DHT22;1894;51.038;13.692;2023-08-17T13:11:02;35.80;76.10
3758;DHT22;1894;51.038;13.692;2023-08-17T13:13:29;35.50;77.40
3758;DHT22;1894;51.038;13.692;2023-08-17T13:15:56;35.60;77.80
3758;DHT22;1894;51.038;13.692;2023-08-17T13:18:23;34.90;77.10
3758;DHT22;1894;51.038;13.692;2023-08-17T13:20:50;35.10;78.80
3758;DHT22;1894;51.038;13.692;2023-08-17T13:23:18;35.20;77.60
3758;DHT22;1894;51.038;13.692;2023-08-17T13:25:45;37.00;78.20
3758;DHT22;1894;51.038;13.692;2023-08-17T13:28:12;39.40;75.00
3758;DHT22;1894;51.038;13.692;2023-08-17T13:30:39;40.90;67.50
3758;DHT22;1894;51.038;13.692;2023-08-17T13:33:07;40.30;67.90
3758;DHT22;1894;51.038;13.692;2023-08-17T13:35:34;40.50;68.30
3758;DHT22;1894;51.038;13.692;2023-08-17T13:38:02;40.00;66.50
3758;DHT22;1894;51.038;13.692;2023-08-17T13:40:32;39.70;66.00
3758;DHT22;1894;51.038;13.692;2023-08-17T13:43:00;40.00;65.60
3758;DHT22;1894;51.038;13.692;2023-08-17T13:45:28;40.30;65.00
3758;DHT22;1894;51.038;13.692;2023-08-17T13:47:56;39.60;65.90
3758;DHT22;1894;51.038;13.692;2023-08-17T13:50:23;38.00;68.60
3758;DHT22;1894;51.038;13.692;2023-08-17T13:52:50;37.70;71.70
3758;DHT22;1894;51.038;13.692;2023-08-17T13:55:17;36.70;72.90
3758;DHT22;1894;51.038;13.692;2023-08-17T13:57:44;36.80;72.30
3758;DHT22;1894;51.038;13.692;2023-08-17T14:00:12;36.50;71.80
3758;DHT22;1894;51.038;13.692;2023-08-17T14:02:40;36.10;70.90
3758;DHT22;1894;51.038;13.692;2023-08-17T14:05:07;35.40;72.90
3758;DHT22;1894;51.038;13.692;2023-08-17T14:07:34;35.20;74.80
3758;DHT22;1894;51.038;13.692;2023-08-17T14:10:01;34.40;73.50
3758;DHT22;1894;51.038;13.692;2023-08-17T14:12:38;33.60;75.80
3758;DHT22;1894;51.038;13.692;2023-08-17T14:15:05;32.80;76.60
3758;DHT22;1894;51.038;13.692;2023-08-17T14:17:33;32.10;79.20
3758;DHT22;1894;51.038;13.692;2023-08-17T14:20:00;32.00;81.20
3758;DHT22;1894;51.038;13.692;2023-08-17T14:22:28;31.90;80.40
3758;DHT22;1894;51.038;13.692;2023-08-17T14:24:55;31.30;80.00
3758;DHT22;1894;51.038;13.692;2023-08-17T14:27:22;31.30;82.00
3758;DHT22;1894;51.038;13.692;2023-08-17T14:29:49;31.10;81.60
3758;DHT22;1894;51.038;13.692;2023-08-17T14:32:17;30.70;81.80
3758;DHT22;1894;51.038;13.692;2023-08-17T14:34:44;30.50;82.80
3758;DHT22;1894;51.038;13.692;2023-08-17T14:37:11;30.60;84.50
3758;DHT22;1894;51.038;13.692;2023-08-17T14:39:38;30.60;85.80
3758;DHT22;1894;51.038;13.692;2023-08-17T14:42:05;31.00;84.90
3758;DHT22;1894;51.038;13.692;2023-08-17T14:44:33;30.40;86.10
3758;DHT22;1894;51.038;13.692;2023-08-17T14:47:00;30.60;86.40
3758;DHT22;1894;51.038;13.692;2023-08-17T14:49:27;30.70;87.00
3758;DHT22;1894;51.038;13.692;2023-08-17T14:51:54;31.70;85.90
3758;DHT22;1894;51.038;13.692;2023-08-17T14:54:21;33.20;83.30
3758;DHT22;1894;51.038;13.692;2023-08-17T14:56:48;34.50;80.60
3758;DHT22;1894;51.038;13.692;2023-08-17T14:59:16;36.90;78.10
3758;DHT22;1894;51.038;13.692;2023-08-17T15:01:44;39.30;76.80
3758;DHT22;1894;51.038;13.692;2023-08-17T15:04:11;40.30;72.70
3758;DHT22;1894;51.038;13.692;2023-08-17T15:06:38;42.90;73.10
3758;DHT22;1894;51.038;13.692;2023-08-17T15:09:08;41.60;68.00
3758;DHT22;1894;51.038;13.692;2023-08-17T15:11:36;40.20;68.50
3758;DHT22;1894;51.038;13.692;2023-08-17T15:14:03;39.40;72.80
3758;DHT22;1894;51.038;13.692;2023-08-17T15:16:30;38.40;72.90
3758;DHT22;1894;51.038;13.692;2023-08-17T15:18:58;37.80;76.20
3758;DHT22;1894;51.038;13.692;2023-08-17T15:21:25;37.70;75.20
3758;DHT22;1894;51.038;13.692;2023-08-17T15:23:53;37.50;79.80
3758;DHT22;1894;51.038;13.692;2023-08-17T15:26:21;37.00;78.10
3758;DHT22;1894;51.038;13.692;2023-08-17T15:28:48;36.80;86.20
3758;DHT22;1894;51.038;13.692;2023-08-17T15:31:15;36.10;84.70
3758;DHT22;1894;51.038;13.692;2023-08-17T15:33:43;35.60;84.60
3758;DHT22;1894;51.038;13.692;2023-08-17T15:36:10;35.50;83.90
3758;DHT22;1894;51.038;13.692;2023-08-17T15:38:38;35.30;87.70
3758;DHT22;1894;51.038;13.692;2023-08-17T15:41:05;35.20;85.70
3758;DHT22;1894;51.038;13.692;2023-08-17T15:43:32;35.40;86.30
3758;DHT22;1894;51.038;13.692;2023-08-17T15:45:59;35.60;84.40
3758;DHT22;1894;51.038;13.692;2023-08-17T15:48:27;35.30;85.90
3758;DHT22;1894;51.038;13.692;2023-08-17T15:50:54;35.20;83.70
3758;DHT22;1894;51.038;13.692;2023-08-17T15:53:21;35.20;83.40
3758;DHT22;1894;51.038;13.692;2023-08-17T15:55:48;34.90;83.20
3758;DHT22;1894;51.038;13.692;2023-08-17T15:58:15;34.50;85.30